sensor_id;sensor_type;location;lat;lon;timestamp;temperature;humidity
8856;DHT22;4464;50.882;4.730;2023-05-07T00:00:42;15.40;99.90
8856;DHT22;4464;50.882;4.730;2023-05-07T00:03:08;15.40;99.90
8856;DHT22;4464;50.882;4.730;2023-05-07T00:05:34;15.40;99.90
8856;DHT22;4464;50.882;4.730;2023-05-07T00:08:03;15.20;99.90
8856;DHT22;4464;50.882;4.730;2023-05-07T00:10:29;15.20;99.90
8856;DHT22;4464;50.882;4.730;2023-05-07T00:12:54;15.30;99.90
8856;DHT22;4464;50.882;4.730;2023-05-07T00:15:20;15.30;99.90
8856;DHT22;4464;50.882;4.730;2023-05-07T00:17:46;15.50;99.90
8856;DHT22;4464;50.882;4.730;2023-05-07T00:20:12;15.50;99.90
8856;DHT22;4464;50.882;4.730;2023-05-07T00:22:37;15.50;99.90
8856;DHT22;4464;50.882;4.730;2023-05-07T00:25:04;15.50;99.90
8856;DHT22;4464;50.882;4.730;2023-05-07T00:27:30;15.50;99.90
8856;DHT22;4464;50.882;4.730;2023-05-07T00:29:56;15.60;99.90
8856;DHT22;4464;50.882;4.730;2023-05-07T00:32:21;15.50;99.90
8856;DHT22;4464;50.882;4.730;2023-05-07T00:34:47;15.40;99.90
8856;DHT22;4464;50.882;4.730;2023-05-07T00:37:15;15.50;99.90
8856;DHT22;4464;50.882;4.730;2023-05-07T00:39:41;15.60;99.90
8856;DHT22;4464;50.882;4.730;2023-05-07T00:42:06;15.60;99.90
8856;DHT22;4464;50.882;4.730;2023-05-07T00:44:36;15.60;99.90
8856;DHT22;4464;50.882;4.730;2023-05-07T00:47:05;15.60;99.90
8856;DHT22;4464;50.882;4.730;2023-05-07T00:49:44;15.40;99.90
8856;DHT22;4464;50.882;4.730;2023-05-07T00:52:13;15.30;99.90
8856;DHT22;4464;50.882;4.730;2023-05-07T00:54:44;15.20;99.90
8856;DHT22;4464;50.882;4.730;2023-05-07T00:57:10;15.30;99.90
8856;DHT22;4464;50.882;4.730;2023-05-07T00:59:39;15.30;99.90
8856;DHT22;4464;50.882;4.730;2023-05-07T01:02:06;15.30;99.90
8856;DHT22;4464;50.882;4.730;2023-05-07T01:04:34;15.30;99.90
8856;DHT22;4464;50.882;4.730;2023-05-07T01:07:03;15.30;99.90
8856;DHT22;4464;50.882;4.730;2023-05-07T01:09:30;15.30;99.90
8856;DHT22;4464;50.882;4.730;2023-05-07T01:11:56;15.40;99.90
8856;DHT22;4464;50.882;4.730;2023-05-07T01:14:23;15.50;99.90
8856;DHT22;4464;50.882;4.730;2023-05-07T01:16:49;15.50;99.90
8856;DHT22;4464;50.882;4.730;2023-05-07T01:19:21;15.50;99.90
8856;DHT22;4464;50.882;4.730;2023-05-07T01:21:48;15.50;99.90
8856;DHT22;4464;50.882;4.730;2023-05-07T01:24:14;15.60;99.90
8856;DHT22;4464;50.882;4.730;2023-05-07T01:26:43;15.50;99.90
8856;DHT22;4464;50.882;4.730;2023-05-07T01:29:10;15.50;99.90
8856;DHT22;4464;50.882;4.730;2023-05-07T01:31:39;15.40;99.90
8856;DHT22;4464;50.882;4.730;2023-05-07T01:34:10;15.30;99.90
8856;DHT22;4464;50.882;4.730;2023-05-07T01:36:38;15.30;99.90
8856;DHT22;4464;50.882;4.730;2023-05-07T01:39:08;15.30;99.90
8856;DHT22;4464;50.882;4.730;2023-05-07T01:41:37;15.30;99.90
8856;DHT22;4464;50.882;4.730;2023-05-07T01:44:03;15.40;99.90
8856;DHT22;4464;50.882;4.730;2023-05-07T01:46:30;15.50;99.90
8856;DHT22;4464;50.882;4.730;2023-05-07T01:48:58;15.50;99.90
8856;DHT22;4464;50.882;4.730;2023-05-07T01:51:27;15.60;99.90
8856;DHT22;4464;50.882;4.730;2023-05-07T01:53:57;15.50;99.90
8856;DHT22;4464;50.882;4.730;2023-05-07T01:56:25;15.40;99.90
8856;DHT22;4464;50.882;4.730;2023-05-07T01:58:52;15.30;99.90
8856;DHT22;4464;50.882;4.730;2023-05-07T02:01:18;15.30;99.90
8856;DHT22;4464;50.882;4.730;2023-05-07T02:03:45;15.20;99.90
8856;DHT22;4464;50.882;4.730;2023-05-07T02:06:16;15.20;99.90
8856;DHT22;4464;50.882;4.730;2023-05-07T02:08:41;15.20;99.90
8856;DHT22;4464;50.882;4.730;2023-05-07T02:11:07;15.20;99.90
8856;DHT22;4464;50.882;4.730;2023-05-07T02:13:35;15.20;99.90
8856;DHT22;4464;50.882;4.730;2023-05-07T02:16:02;15.20;99.90
8856;DHT22;4464;50.882;4.730;2023-05-07T02:18:28;15.30;99.90
8856;DHT22;4464;50.882;4.730;2023-05-07T02:20:54;15.40;99.90
8856;DHT22;4464;50.882;4.730;2023-05-07T02:23:19;15.40;99.90
8856;DHT22;4464;50.882;4.730;2023-05-07T02:25:47;15.30;99.90
8856;DHT22;4464;50.882;4.730;2023-05-07T02:28:15;15.40;99.90
8856;DHT22;4464;50.882;4.730;2023-05-07T02:30:41;15.40;99.90
8856;DHT22;4464;50.882;4.730;2023-05-07T02:33:11;15.40;99.90
8856;DHT22;4464;50.882;4.730;2023-05-07T02:35:39;15.30;99.90
8856;DHT22;4464;50.882;4.730;2023-05-07T02:38:05;15.40;99.90
8856;DHT22;4464;50.882;4.730;2023-05-07T02:40:30;15.40;99.90
8856;DHT22;4464;50.882;4.730;2023-05-07T02:42:59;15.50;99.90
8856;DHT22;4464;50.882;4.730;2023-05-07T02:45:25;15.50;99.90
8856;DHT22;4464;50.882;4.730;2023-05-07T02:47:50;15.50;99.90
8856;DHT22;4464;50.882;4.730;2023-05-07T02:50:16;15.50;99.90
8856;DHT22;4464;50.882;4.730;2023-05-07T02:52:42;15.50;99.90
8856;DHT22;4464;50.882;4.730;2023-05-07T02:55:08;15.50;99.90
8856;DHT22;4464;50.882;4.730;2023-05-07T02:57:34;15.40;99.90
8856;DHT22;4464;50.882;4.730;2023-05-07T03:00:00;15.40;99.90
8856;DHT22;4464;50.882;4.730;2023-05-07T03:02:35;15.30;99.90
8856;DHT22;4464;50.882;4.730;2023-05-07T03:05:03;15.20;99.90
8856;DHT22;4464;50.882;4.730;2023-05-07T03:07:29;15.10;99.90
8856;DHT22;4464;50.882;4.730;2023-05-07T03:09:55;15.10;99.90
8856;DHT22;4464;50.882;4.730;2023-05-07T03:12:21;15.10;99.90
8856;DHT22;4464;50.882;4.730;2023-05-07T03:14:48;15.10;99.90
8856;DHT22;4464;50.882;4.730;2023-05-07T03:17:14;15.00;99.90
8856;DHT22;4464;50.882;4.730;2023-05-07T03:19:41;15.00;99.90
8856;DHT22;4464;50.882;4.730;2023-05-07T03:22:09;15.00;99.90
8856;DHT22;4464;50.882;4.730;2023-05-07T03:24:37;15.00;99.90
8856;DHT22;4464;50.882;4.730;2023-05-07T03:27:03;15.10;99.90
8856;DHT22;4464;50.882;4.730;2023-05-07T03:29:33;15.00;99.90
8856;DHT22;4464;50.882;4.730;2023-05-07T03:31:58;15.00;99.90
8856;DHT22;4464;50.882;4.730;2023-05-07T03:34:26;14.90;99.90
8856;DHT22;4464;50.882;4.730;2023-05-07T03:36:52;14.90;99.90
8856;DHT22;4464;50.882;4.730;2023-05-07T03:39:18;14.90;99.90
8856;DHT22;4464;50.882;4.730;2023-05-07T03:41:43;14.90;99.90
8856;DHT22;4464;50.882;4.730;2023-05-07T03:44:09;15.00;99.90
8856;DHT22;4464;50.882;4.730;2023-05-07T03:46:41;15.00;99.90
8856;DHT22;4464;50.882;4.730;2023-05-07T03:49:09;15.00;99.90
8856;DHT22;4464;50.882;4.730;2023-05-07T03:51:35;15.00;99.90
8856;DHT22;4464;50.882;4.730;2023-05-07T03:54:01;15.00;99.90
8856;DHT22;4464;50.882;4.730;2023-05-07T03:56:27;15.00;99.90
8856;DHT22;4464;50.882;4.730;2023-05-07T03:58:53;15.10;99.90
8856;DHT22;4464;50.882;4.730;2023-05-07T04:01:21;15.00;99.90
8856;DHT22;4464;50.882;4.730;2023-05-07T04:03:50;15.00;99.90
8856;DHT22;4464;50.882;4.730;2023-05-07T04:06:16;15.00;99.90
8856;DHT22;4464;50.882;4.730;2023-05-07T04:08:44;15.00;99.90
8856;DHT22;4464;50.882;4.730;2023-05-07T04:11:10;14.90;99.90
8856;DHT22;4464;50.882;4.730;2023-05-07T04:13:36;15.00;99.90
8856;DHT22;4464;50.882;4.730;2023-05-07T04:16:03;15.00;99.90
8856;DHT22;4464;50.882;4.730;2023-05-07T04:18:29;14.90;99.90
8856;DHT22;4464;50.882;4.730;2023-05-07T04:20:55;15.00;99.90
8856;DHT22;4464;50.882;4.730;2023-05-07T04:23:23;15.10;99.90
8856;DHT22;4464;50.882;4.730;2023-05-07T04:25:50;15.10;99.90
8856;DHT22;4464;50.882;4.730;2023-05-07T04:28:15;15.20;99.90
8856;DHT22;4464;50.882;4.730;2023-05-07T04:30:42;15.20;99.90
8856;DHT22;4464;50.882;4.730;2023-05-07T04:33:07;15.10;99.90
8856;DHT22;4464;50.882;4.730;2023-05-07T04:35:33;15.10;99.90
8856;DHT22;4464;50.882;4.730;2023-05-07T04:38:00;15.10;99.90
8856;DHT22;4464;50.882;4.730;2023-05-07T04:40:25;15.10;99.90
8856;DHT22;4464;50.882;4.730;2023-05-07T04:42:51;15.10;99.90
8856;DHT22;4464;50.882;4.730;2023-05-07T04:45:18;15.10;99.90
8856;DHT22;4464;50.882;4.730;2023-05-07T04:47:44;15.10;99.90
8856;DHT22;4464;50.882;4.730;2023-05-07T04:50:12;15.00;99.90
8856;DHT22;4464;50.882;4.730;2023-05-07T04:52:37;15.20;99.90
8856;DHT22;4464;50.882;4.730;2023-05-07T04:55:03;15.20;99.90
8856;DHT22;4464;50.882;4.730;2023-05-07T04:57:32;15.30;99.90
8856;DHT22;4464;50.882;4.730;2023-05-07T05:00:00;15.30;99.90
8856;DHT22;4464;50.882;4.730;2023-05-07T05:02:28;15.30;99.90
8856;DHT22;4464;50.882;4.730;2023-05-07T05:04:56;15.30;99.90
8856;DHT22;4464;50.882;4.730;2023-05-07T05:07:25;15.40;99.90
8856;DHT22;4464;50.882;4.730;2023-05-07T05:09:50;15.50;99.90
8856;DHT22;4464;50.882;4.730;2023-05-07T05:12:19;15.60;99.90
8856;DHT22;4464;50.882;4.730;2023-05-07T05:14:44;15.70;99.90
8856;DHT22;4464;50.882;4.730;2023-05-07T05:17:10;15.70;99.90
8856;DHT22;4464;50.882;4.730;2023-05-07T05:19:36;15.80;99.90
8856;DHT22;4464;50.882;4.730;2023-05-07T05:22:03;15.90;99.90
8856;DHT22;4464;50.882;4.730;2023-05-07T05:24:30;16.00;99.90
8856;DHT22;4464;50.882;4.730;2023-05-07T05:26:56;16.10;99.90
8856;DHT22;4464;50.882;4.730;2023-05-07T05:29:22;16.20;99.90
8856;DHT22;4464;50.882;4.730;2023-05-07T05:31:48;16.20;99.90
8856;DHT22;4464;50.882;4.730;2023-05-07T05:34:13;16.20;99.90
8856;DHT22;4464;50.882;4.730;2023-05-07T05:36:39;16.20;99.90
8856;DHT22;4464;50.882;4.730;2023-05-07T05:39:05;16.20;99.90
8856;DHT22;4464;50.882;4.730;2023-05-07T05:41:31;16.30;99.90
8856;DHT22;4464;50.882;4.730;2023-05-07T05:43:57;16.30;99.90
8856;DHT22;4464;50.882;4.730;2023-05-07T05:46:25;16.20;99.90
8856;DHT22;4464;50.882;4.730;2023-05-07T05:48:53;16.20;99.90
8856;DHT22;4464;50.882;4.730;2023-05-07T05:51:18;16.20;99.90
8856;DHT22;4464;50.882;4.730;2023-05-07T05:53:44;16.20;99.90
8856;DHT22;4464;50.882;4.730;2023-05-07T05:56:12;16.10;99.90
8856;DHT22;4464;50.882;4.730;2023-05-07T05:58:38;16.10;99.90
8856;DHT22;4464;50.882;4.730;2023-05-07T06:01:04;16.10;99.90
8856;DHT22;4464;50.882;4.730;2023-05-07T06:03:30;16.00;99.90
8856;DHT22;4464;50.882;4.730;2023-05-07T06:05:57;16.10;99.90
8856;DHT22;4464;50.882;4.730;2023-05-07T06:08:28;16.30;99.90
8856;DHT22;4464;50.882;4.730;2023-05-07T06:10:57;16.30;99.90
8856;DHT22;4464;50.882;4.730;2023-05-07T06:13:23;16.30;99.90
8856;DHT22;4464;50.882;4.730;2023-05-07T06:15:49;16.30;99.90
8856;DHT22;4464;50.882;4.730;2023-05-07T06:18:15;16.40;99.90
8856;DHT22;4464;50.882;4.730;2023-05-07T06:20:41;16.40;99.90
8856;DHT22;4464;50.882;4.730;2023-05-07T06:23:07;16.30;99.90
8856;DHT22;4464;50.882;4.730;2023-05-07T06:25:32;16.30;99.90
8856;DHT22;4464;50.882;4.730;2023-05-07T06:27:58;16.40;99.90
8856;DHT22;4464;50.882;4.730;2023-05-07T06:30:24;16.50;99.90
8856;DHT22;4464;50.882;4.730;2023-05-07T06:32:50;16.80;99.90
8856;DHT22;4464;50.882;4.730;2023-05-07T06:35:15;17.00;99.90
8856;DHT22;4464;50.882;4.730;2023-05-07T06:37:44;16.90;99.90
8856;DHT22;4464;50.882;4.730;2023-05-07T06:40:10;16.90;99.90
8856;DHT22;4464;50.882;4.730;2023-05-07T06:42:36;16.70;99.90
8856;DHT22;4464;50.882;4.730;2023-05-07T06:45:03;16.50;99.90
8856;DHT22;4464;50.882;4.730;2023-05-07T06:47:31;16.40;99.90
8856;DHT22;4464;50.882;4.730;2023-05-07T06:49:56;16.30;99.90
8856;DHT22;4464;50.882;4.730;2023-05-07T06:52:22;16.20;99.90
8856;DHT22;4464;50.882;4.730;2023-05-07T06:54:50;16.20;99.90
8856;DHT22;4464;50.882;4.730;2023-05-07T06:57:16;16.10;99.90
8856;DHT22;4464;50.882;4.730;2023-05-07T06:59:41;16.20;99.90
8856;DHT22;4464;50.882;4.730;2023-05-07T07:02:07;16.30;99.90
8856;DHT22;4464;50.882;4.730;2023-05-07T07:04:33;16.40;99.90
8856;DHT22;4464;50.882;4.730;2023-05-07T07:06:59;16.50;99.90
8856;DHT22;4464;50.882;4.730;2023-05-07T07:09:25;16.50;99.90
8856;DHT22;4464;50.882;4.730;2023-05-07T07:11:51;16.60;99.90
8856;DHT22;4464;50.882;4.730;2023-05-07T07:14:22;16.70;99.90
8856;DHT22;4464;50.882;4.730;2023-05-07T07:16:48;16.80;99.90
8856;DHT22;4464;50.882;4.730;2023-05-07T07:19:13;16.90;99.90
8856;DHT22;4464;50.882;4.730;2023-05-07T07:21:41;16.90;99.90
8856;DHT22;4464;50.882;4.730;2023-05-07T07:24:07;17.00;99.90
8856;DHT22;4464;50.882;4.730;2023-05-07T07:26:32;17.10;99.90
8856;DHT22;4464;50.882;4.730;2023-05-07T07:29:01;17.20;99.90
8856;DHT22;4464;50.882;4.730;2023-05-07T07:31:26;17.30;99.90
8856;DHT22;4464;50.882;4.730;2023-05-07T07:33:54;17.40;99.90
8856;DHT22;4464;50.882;4.730;2023-05-07T07:36:20;17.30;99.90
8856;DHT22;4464;50.882;4.730;2023-05-07T07:38:46;17.20;99.90
8856;DHT22;4464;50.882;4.730;2023-05-07T07:41:14;17.20;99.90
8856;DHT22;4464;50.882;4.730;2023-05-07T07:43:40;17.10;99.90
8856;DHT22;4464;50.882;4.730;2023-05-07T07:46:07;17.10;99.90
8856;DHT22;4464;50.882;4.730;2023-05-07T07:48:35;17.10;99.90
8856;DHT22;4464;50.882;4.730;2023-05-07T07:51:01;17.10;99.90
8856;DHT22;4464;50.882;4.730;2023-05-07T07:53:29;17.10;99.90
8856;DHT22;4464;50.882;4.730;2023-05-07T07:55:54;17.10;99.90
8856;DHT22;4464;50.882;4.730;2023-05-07T07:58:21;17.10;99.90
8856;DHT22;4464;50.882;4.730;2023-05-07T08:00:49;17.10;99.90
8856;DHT22;4464;50.882;4.730;2023-05-07T08:03:17;17.10;99.90
8856;DHT22;4464;50.882;4.730;2023-05-07T08:05:45;17.20;99.90
8856;DHT22;4464;50.882;4.730;2023-05-07T08:08:11;17.20;99.90
8856;DHT22;4464;50.882;4.730;2023-05-07T08:10:37;17.20;99.90
8856;DHT22;4464;50.882;4.730;2023-05-07T08:13:05;17.40;99.90
8856;DHT22;4464;50.882;4.730;2023-05-07T08:15:31;17.40;99.90
8856;DHT22;4464;50.882;4.730;2023-05-07T08:17:58;17.40;99.90
8856;DHT22;4464;50.882;4.730;2023-05-07T08:20:25;17.40;99.90
8856;DHT22;4464;50.882;4.730;2023-05-07T08:22:53;17.30;99.90
8856;DHT22;4464;50.882;4.730;2023-05-07T08:25:21;17.20;99.90
8856;DHT22;4464;50.882;4.730;2023-05-07T08:27:47;17.10;99.90
8856;DHT22;4464;50.882;4.730;2023-05-07T08:30:13;17.00;99.90
8856;DHT22;4464;50.882;4.730;2023-05-07T08:32:39;17.00;99.90
8856;DHT22;4464;50.882;4.730;2023-05-07T08:35:08;16.90;99.90
8856;DHT22;4464;50.882;4.730;2023-05-07T08:37:37;17.00;99.90
8856;DHT22;4464;50.882;4.730;2023-05-07T08:40:03;17.00;99.90
8856;DHT22;4464;50.882;4.730;2023-05-07T08:42:36;17.00;99.90
8856;DHT22;4464;50.882;4.730;2023-05-07T08:45:09;17.10;99.90
8856;DHT22;4464;50.882;4.730;2023-05-07T08:47:42;17.10;99.90
8856;DHT22;4464;50.882;4.730;2023-05-07T08:50:09;17.00;99.90
8856;DHT22;4464;50.882;4.730;2023-05-07T08:52:37;16.90;99.90
8856;DHT22;4464;50.882;4.730;2023-05-07T08:55:04;16.90;99.90
8856;DHT22;4464;50.882;4.730;2023-05-07T08:57:33;16.90;99.90
8856;DHT22;4464;50.882;4.730;2023-05-07T09:00:01;16.90;99.90
8856;DHT22;4464;50.882;4.730;2023-05-07T09:02:26;16.80;99.90
8856;DHT22;4464;50.882;4.730;2023-05-07T09:04:52;16.80;99.90
8856;DHT22;4464;50.882;4.730;2023-05-07T09:07:21;16.70;99.90
8856;DHT22;4464;50.882;4.730;2023-05-07T09:09:47;16.70;99.90
8856;DHT22;4464;50.882;4.730;2023-05-07T09:12:13;16.60;99.90
8856;DHT22;4464;50.882;4.730;2023-05-07T09:14:39;16.60;99.90
8856;DHT22;4464;50.882;4.730;2023-05-07T09:17:07;16.60;99.90
8856;DHT22;4464;50.882;4.730;2023-05-07T09:19:33;16.70;99.90
8856;DHT22;4464;50.882;4.730;2023-05-07T09:22:04;16.70;99.90
8856;DHT22;4464;50.882;4.730;2023-05-07T09:24:32;16.80;99.90
8856;DHT22;4464;50.882;4.730;2023-05-07T09:27:06;16.80;99.90
8856;DHT22;4464;50.882;4.730;2023-05-07T09:29:32;16.80;99.90
8856;DHT22;4464;50.882;4.730;2023-05-07T09:32:05;16.80;99.90
8856;DHT22;4464;50.882;4.730;2023-05-07T09:34:34;16.70;99.90
8856;DHT22;4464;50.882;4.730;2023-05-07T09:37:04;16.80;99.90
8856;DHT22;4464;50.882;4.730;2023-05-07T09:39:44;16.80;99.90
8856;DHT22;4464;50.882;4.730;2023-05-07T09:42:11;16.90;99.90
8856;DHT22;4464;50.882;4.730;2023-05-07T09:44:38;16.90;99.90
8856;DHT22;4464;50.882;4.730;2023-05-07T09:47:07;16.90;99.90
8856;DHT22;4464;50.882;4.730;2023-05-07T09:49:38;16.90;99.90
8856;DHT22;4464;50.882;4.730;2023-05-07T09:52:06;16.80;99.90
8856;DHT22;4464;50.882;4.730;2023-05-07T09:54:35;16.80;99.90
8856;DHT22;4464;50.882;4.730;2023-05-07T09:57:04;16.80;99.90
8856;DHT22;4464;50.882;4.730;2023-05-07T09:59:31;16.70;99.90
8856;DHT22;4464;50.882;4.730;2023-05-07T10:02:00;16.70;99.90
8856;DHT22;4464;50.882;4.730;2023-05-07T10:04:29;16.80;99.90
8856;DHT22;4464;50.882;4.730;2023-05-07T10:06:59;16.70;99.90
8856;DHT22;4464;50.882;4.730;2023-05-07T10:09:26;16.70;99.90
8856;DHT22;4464;50.882;4.730;2023-05-07T10:11:52;16.70;99.90
8856;DHT22;4464;50.882;4.730;2023-05-07T10:14:21;16.70;99.90
8856;DHT22;4464;50.882;4.730;2023-05-07T10:16:47;16.60;99.90
8856;DHT22;4464;50.882;4.730;2023-05-07T10:19:18;16.60;99.90
8856;DHT22;4464;50.882;4.730;2023-05-07T10:22:05;16.70;99.90
8856;DHT22;4464;50.882;4.730;2023-05-07T10:24:36;16.80;99.90
8856;DHT22;4464;50.882;4.730;2023-05-07T10:27:07;16.80;99.90
8856;DHT22;4464;50.882;4.730;2023-05-07T10:29:38;16.80;99.90
8856;DHT22;4464;50.882;4.730;2023-05-07T10:32:22;16.80;99.90
8856;DHT22;4464;50.882;4.730;2023-05-07T10:34:53;16.80;99.90
8856;DHT22;4464;50.882;4.730;2023-05-07T10:37:23;16.90;99.90
8856;DHT22;4464;50.882;4.730;2023-05-07T10:39:49;17.00;99.90
8856;DHT22;4464;50.882;4.730;2023-05-07T10:42:15;17.10;99.90
8856;DHT22;4464;50.882;4.730;2023-05-07T10:44:41;17.10;99.90
8856;DHT22;4464;50.882;4.730;2023-05-07T10:47:11;17.20;99.90
8856;DHT22;4464;50.882;4.730;2023-05-07T10:52:20;17.10;99.90
8856;DHT22;4464;50.882;4.730;2023-05-07T10:54:46;17.10;99.90
8856;DHT22;4464;50.882;4.730;2023-05-07T10:57:39;17.10;99.90
8856;DHT22;4464;50.882;4.730;2023-05-07T11:03:08;17.20;99.90
8856;DHT22;4464;50.882;4.730;2023-05-07T11:05:36;17.10;99.90
8856;DHT22;4464;50.882;4.730;2023-05-07T11:08:04;17.10;99.90
8856;DHT22;4464;50.882;4.730;2023-05-07T11:13:16;17.20;99.90
8856;DHT22;4464;50.882;4.730;2023-05-07T11:15:47;17.30;99.90
8856;DHT22;4464;50.882;4.730;2023-05-07T11:18:17;17.20;99.90
8856;DHT22;4464;50.882;4.730;2023-05-07T11:20:54;17.20;99.90
8856;DHT22;4464;50.882;4.730;2023-05-07T11:26:06;17.40;99.90
8856;DHT22;4464;50.882;4.730;2023-05-07T11:28:42;17.40;99.90
8856;DHT22;4464;50.882;4.730;2023-05-07T11:31:09;17.20;99.90
8856;DHT22;4464;50.882;4.730;2023-05-07T11:33:37;17.20;99.90
8856;DHT22;4464;50.882;4.730;2023-05-07T11:36:04;17.20;99.90
8856;DHT22;4464;50.882;4.730;2023-05-07T11:38:33;17.20;99.90
8856;DHT22;4464;50.882;4.730;2023-05-07T11:41:00;17.20;99.90
8856;DHT22;4464;50.882;4.730;2023-05-07T11:43:33;17.50;99.90
8856;DHT22;4464;50.882;4.730;2023-05-07T11:46:10;17.40;99.90
8856;DHT22;4464;50.882;4.730;2023-05-07T11:48:38;17.50;99.90
8856;DHT22;4464;50.882;4.730;2023-05-07T11:51:07;17.50;99.90
8856;DHT22;4464;50.882;4.730;2023-05-07T11:53:42;17.50;99.90
8856;DHT22;4464;50.882;4.730;2023-05-07T11:56:08;17.70;99.90
8856;DHT22;4464;50.882;4.730;2023-05-07T11:58:34;17.90;99.90
8856;DHT22;4464;50.882;4.730;2023-05-07T12:01:00;18.00;99.90
8856;DHT22;4464;50.882;4.730;2023-05-07T12:03:26;18.10;99.90
8856;DHT22;4464;50.882;4.730;2023-05-07T12:05:52;18.10;99.90
8856;DHT22;4464;50.882;4.730;2023-05-07T12:08:21;18.00;99.90
8856;DHT22;4464;50.882;4.730;2023-05-07T12:10:50;18.20;99.90
8856;DHT22;4464;50.882;4.730;2023-05-07T12:13:25;18.30;99.90
8856;DHT22;4464;50.882;4.730;2023-05-07T12:15:52;18.60;99.90
8856;DHT22;4464;50.882;4.730;2023-05-07T12:18:18;18.70;99.90
8856;DHT22;4464;50.882;4.730;2023-05-07T12:20:49;19.10;99.90
8856;DHT22;4464;50.882;4.730;2023-05-07T12:23:16;19.20;99.90
8856;DHT22;4464;50.882;4.730;2023-05-07T12:25:43;19.40;99.90
8856;DHT22;4464;50.882;4.730;2023-05-07T12:28:19;19.40;99.90
8856;DHT22;4464;50.882;4.730;2023-05-07T12:30:49;19.30;99.90
8856;DHT22;4464;50.882;4.730;2023-05-07T12:33:23;19.30;99.90
8856;DHT22;4464;50.882;4.730;2023-05-07T12:35:50;19.20;99.90
8856;DHT22;4464;50.882;4.730;2023-05-07T12:38:17;19.30;99.90
8856;DHT22;4464;50.882;4.730;2023-05-07T12:40:49;19.30;99.90
8856;DHT22;4464;50.882;4.730;2023-05-07T12:43:25;19.10;99.90
8856;DHT22;4464;50.882;4.730;2023-05-07T12:45:53;19.00;99.90
8856;DHT22;4464;50.882;4.730;2023-05-07T12:48:20;19.00;99.90
8856;DHT22;4464;50.882;4.730;2023-05-07T12:50:59;19.10;99.90
8856;DHT22;4464;50.882;4.730;2023-05-07T12:53:26;19.10;99.90
8856;DHT22;4464;50.882;4.730;2023-05-07T12:55:53;19.20;99.90
8856;DHT22;4464;50.882;4.730;2023-05-07T12:58:26;19.40;99.90
8856;DHT22;4464;50.882;4.730;2023-05-07T13:00:53;19.50;99.90
8856;DHT22;4464;50.882;4.730;2023-05-07T13:03:26;19.40;99.90
8856;DHT22;4464;50.882;4.730;2023-05-07T13:05:56;19.50;99.90
8856;DHT22;4464;50.882;4.730;2023-05-07T13:08:31;19.60;99.90
8856;DHT22;4464;50.882;4.730;2023-05-07T13:11:02;19.70;99.90
8856;DHT22;4464;50.882;4.730;2023-05-07T13:13:32;19.80;99.90
8856;DHT22;4464;50.882;4.730;2023-05-07T13:15:58;20.00;99.90
8856;DHT22;4464;50.882;4.730;2023-05-07T13:18:28;19.90;99.90
8856;DHT22;4464;50.882;4.730;2023-05-07T13:20:54;19.80;99.90
8856;DHT22;4464;50.882;4.730;2023-05-07T13:23:22;19.70;99.90
8856;DHT22;4464;50.882;4.730;2023-05-07T13:25:51;19.90;99.90
8856;DHT22;4464;50.882;4.730;2023-05-07T13:28:19;20.30;99.90
8856;DHT22;4464;50.882;4.730;2023-05-07T13:30:48;20.60;99.90
8856;DHT22;4464;50.882;4.730;2023-05-07T13:33:13;20.40;99.90
8856;DHT22;4464;50.882;4.730;2023-05-07T13:35:40;20.10;99.90
8856;DHT22;4464;50.882;4.730;2023-05-07T13:38:06;20.00;99.90
8856;DHT22;4464;50.882;4.730;2023-05-07T13:40:32;20.00;99.90
8856;DHT22;4464;50.882;4.730;2023-05-07T13:42:58;19.80;99.90
8856;DHT22;4464;50.882;4.730;2023-05-07T13:45:30;19.70;99.90
8856;DHT22;4464;50.882;4.730;2023-05-07T13:47:57;19.80;99.90
8856;DHT22;4464;50.882;4.730;2023-05-07T13:50:23;19.80;99.90
8856;DHT22;4464;50.882;4.730;2023-05-07T13:52:48;19.80;99.90
8856;DHT22;4464;50.882;4.730;2023-05-07T13:55:18;20.00;99.90
8856;DHT22;4464;50.882;4.730;2023-05-07T13:57:44;20.10;99.90
8856;DHT22;4464;50.882;4.730;2023-05-07T14:00:10;20.10;99.90
8856;DHT22;4464;50.882;4.730;2023-05-07T14:02:39;20.00;99.90
8856;DHT22;4464;50.882;4.730;2023-05-07T14:05:06;19.70;99.90
8856;DHT22;4464;50.882;4.730;2023-05-07T14:07:31;19.50;99.90
8856;DHT22;4464;50.882;4.730;2023-05-07T14:09:57;19.70;99.90
8856;DHT22;4464;50.882;4.730;2023-05-07T14:12:23;19.90;99.90
8856;DHT22;4464;50.882;4.730;2023-05-07T14:14:51;19.80;99.90
8856;DHT22;4464;50.882;4.730;2023-05-07T14:17:17;19.90;99.90
8856;DHT22;4464;50.882;4.730;2023-05-07T14:19:44;20.10;99.90
8856;DHT22;4464;50.882;4.730;2023-05-07T14:22:12;19.90;99.90
8856;DHT22;4464;50.882;4.730;2023-05-07T14:24:40;19.60;99.90
8856;DHT22;4464;50.882;4.730;2023-05-07T14:27:06;19.80;99.90
8856;DHT22;4464;50.882;4.730;2023-05-07T14:29:32;19.60;99.90
8856;DHT22;4464;50.882;4.730;2023-05-07T14:31:58;19.30;99.90
8856;DHT22;4464;50.882;4.730;2023-05-07T14:34:24;19.40;99.90
8856;DHT22;4464;50.882;4.730;2023-05-07T14:36:49;19.40;99.90
8856;DHT22;4464;50.882;4.730;2023-05-07T14:39:20;19.40;99.90
8856;DHT22;4464;50.882;4.730;2023-05-07T14:41:45;19.10;99.90
8856;DHT22;4464;50.882;4.730;2023-05-07T14:44:13;19.10;99.90
8856;DHT22;4464;50.882;4.730;2023-05-07T14:46:39;19.20;99.90
8856;DHT22;4464;50.882;4.730;2023-05-07T14:49:05;19.10;99.90
8856;DHT22;4464;50.882;4.730;2023-05-07T14:51:33;19.10;99.90
8856;DHT22;4464;50.882;4.730;2023-05-07T14:53:58;19.10;99.90
8856;DHT22;4464;50.882;4.730;2023-05-07T14:56:28;19.20;99.90
8856;DHT22;4464;50.882;4.730;2023-05-07T14:58:54;19.40;99.90
8856;DHT22;4464;50.882;4.730;2023-05-07T15:01:20;19.60;99.90
8856;DHT22;4464;50.882;4.730;2023-05-07T15:03:50;19.60;99.90
8856;DHT22;4464;50.882;4.730;2023-05-07T15:06:16;19.70;99.90
8856;DHT22;4464;50.882;4.730;2023-05-07T15:08:42;19.80;99.90
8856;DHT22;4464;50.882;4.730;2023-05-07T15:11:07;19.90;99.90
8856;DHT22;4464;50.882;4.730;2023-05-07T15:13:35;20.00;99.90
8856;DHT22;4464;50.882;4.730;2023-05-07T15:16:01;20.20;99.90
8856;DHT22;4464;50.882;4.730;2023-05-07T15:18:29;20.30;99.90
8856;DHT22;4464;50.882;4.730;2023-05-07T15:20:55;20.00;99.90
8856;DHT22;4464;50.882;4.730;2023-05-07T15:23:22;20.00;99.90
8856;DHT22;4464;50.882;4.730;2023-05-07T15:25:48;20.00;99.90
8856;DHT22;4464;50.882;4.730;2023-05-07T15:28:13;20.20;99.90
8856;DHT22;4464;50.882;4.730;2023-05-07T15:30:39;20.20;99.90
8856;DHT22;4464;50.882;4.730;2023-05-07T15:33:05;20.20;99.90
8856;DHT22;4464;50.882;4.730;2023-05-07T15:35:33;20.10;99.90
8856;DHT22;4464;50.882;4.730;2023-05-07T15:38:01;20.20;99.90
8856;DHT22;4464;50.882;4.730;2023-05-07T15:40:28;20.20;99.90
8856;DHT22;4464;50.882;4.730;2023-05-07T15:42:54;20.10;99.90
8856;DHT22;4464;50.882;4.730;2023-05-07T15:45:23;20.20;99.90
8856;DHT22;4464;50.882;4.730;2023-05-07T15:47:49;20.10;99.90
8856;DHT22;4464;50.882;4.730;2023-05-07T15:50:15;20.00;99.90
8856;DHT22;4464;50.882;4.730;2023-05-07T15:52:41;20.00;99.90
8856;DHT22;4464;50.882;4.730;2023-05-07T15:55:09;19.90;99.90
8856;DHT22;4464;50.882;4.730;2023-05-07T15:57:37;19.80;99.90
8856;DHT22;4464;50.882;4.730;2023-05-07T16:00:06;19.90;99.90
8856;DHT22;4464;50.882;4.730;2023-05-07T16:02:36;19.80;99.90
8856;DHT22;4464;50.882;4.730;2023-05-07T16:05:02;19.70;99.90
8856;DHT22;4464;50.882;4.730;2023-05-07T16:07:28;19.70;99.90
8856;DHT22;4464;50.882;4.730;2023-05-07T16:09:56;19.70;99.90
8856;DHT22;4464;50.882;4.730;2023-05-07T16:12:23;19.70;99.90
8856;DHT22;4464;50.882;4.730;2023-05-07T16:14:49;19.70;99.90